Scroll down
FLIGHT INFORMATION
United Airlines

UAL3980

At Arrival Gate

KMSY
 KMSP
DATE: 2021-02-11
GATE: 
GATE DEPARTURE: 19:43
TAKEOFF: 19:52
DATE: 2021-02-11
GATE: G16
LANDING: 22:01
GATE ARRIVAL: 22:08
FLIGHT DATA
Crew: 
Speed: 
488 kts
Altitude: 
40,011 ft
Stage Length: 
904.8 nm
Block Time: 
2.4 hrs
Flight Time: 
2.2 hrs
Fuel Used: 
31,208 lb
Cleared Route: KMSY MCB MCGEE SQS ARG HLV HELLO OOPEE LAZYY BLUEM HHAMR FARBO NOFLD CANDD HAPTN RW30L
TRACK DATA
50,000 ft 1,000 kts
AIRCRAFT INFO AND CUMULATIVE STATS
Aircraft Type: 
B772
Registration: 
SELCAL: 
ASFG
MSN/LN: 
26927 / 108
Operator: 
Total Flights: 
5
Total Block Time: 
14.1 hrs
Total Flight Time: 
12.8 hrs
Total Fuel Used: 
179,766 lb
DATALINK LOG | Newest first | Current as of: 2022-09-30 00:19:32
LABEL SEQUENCE CONTENT Dn/Up
QD083622:08 13.6▼ Dn
QC023022:01▼ Dn
2U2245KMSP 112053Z 36006KT 10SM FEW025 FEW045 BKN250 M18/M25 A3055 RMK AO2 SLP371 VIRGA T11781250 56021▲ Up
2S2152KMSP▼ Dn
GA2061GATE G16▲ Up
GR2051KMSP 21:58 WCHR/S/C 02/00/00 HI-VAL NO DIPL/VIP NO▼ Dn
2U2104KMSP 111953Z VRB05KT 10SM BKN050 OVC060 M18/M26 A3055 RMK AO2 SLP373 VIRGA T11781261▲ Up
2S2052KMSP▼ Dn
QB522419:52▼ Dn
QA441719:43 44.8▼ Dn
A33013CLEARED TO KMSP VIA MCB J35 SQS ARG HLV HELLO BLUEM3. SQUAWK 5465.▲ Up
Q02902[LINK ACK]▲ Up
Q02902[LINK TEST]▼ Dn


AIRCRAFT HISTORY
FLIGHT DATE FLIGHT NO. ORIGIN DESTINATION CLEARED ROUTE BLOCK TIME FLIGHT TIME FUEL USED PILOT
2021-04-20UAL3822KDFW KRNO KDFW HAZKL TULUY HUNNT TYGGR DBLSS HRPER HULZE FTI ESPAN RGINA RSK ILC MVA YERIN RYANN KLOCK RW16R3.3 hrs3.1 hrs41,454 lbPete L.
2021-03-09UAL3821KIDA KDFW KIDA BPI OCS PUB BGD MDANO BELFR HHULL LETNN ZUBOV VKTRY ZMMAN PHAUP LEGRE RW18R2.5 hrs2.2 hrs31,017 lbPete L.
2021-02-27UAL5825KMSY KIDA KMSY EIC IRW GCK DVV CKW LUDIC RW213.4 hrs3.2 hrs43,771 lbPete L.
2021-02-26UAL5190KMSP KMSY KMSP FGT FOBUG DOKTR CORDY RST ALO WELTS CARIN MCB ZYDCO FOILS RYTHM OYSTY RAYOP TURTL RW112.5 hrs2.2 hrs32,316 lbPete L.
2021-02-11UAL3980KMSY KMSP KMSY MCB MCGEE SQS ARG HLV HELLO OOPEE LAZYY BLUEM HHAMR FARBO NOFLD CANDD HAPTN RW30L2.4 hrs2.2 hrs31,208 lbPete L.